sensor_id;sensor_type;location;lat;lon;timestamp;temperature;humidity
23130;DHT22;11734;51.046;13.778;2023-02-15T01:55:58;1.60;99.90
23130;DHT22;11734;51.046;13.778;2023-02-15T01:58:27;1.60;99.90
23130;DHT22;11734;51.046;13.778;2023-02-15T02:00:58;1.60;99.90
23130;DHT22;11734;51.046;13.778;2023-02-15T02:06:15;1.50;99.90
23130;DHT22;11734;51.046;13.778;2023-02-15T02:08:42;1.50;99.90
23130;DHT22;11734;51.046;13.778;2023-02-15T02:11:11;1.40;99.90
23130;DHT22;11734;51.046;13.778;2023-02-15T02:13:43;1.40;99.90
23130;DHT22;11734;51.046;13.778;2023-02-15T02:25:11;1.40;99.90
23130;DHT22;11734;51.046;13.778;2023-02-15T02:27:54;1.50;99.90
23130;DHT22;11734;51.046;13.778;2023-02-15T02:47:29;1.40;99.90
23130;DHT22;11734;51.046;13.778;2023-02-15T02:50:13;1.40;99.90
23130;DHT22;11734;51.046;13.778;2023-02-15T02:52:51;1.40;99.90
23130;DHT22;11734;51.046;13.778;2023-02-15T03:00:32;1.40;99.90
23130;DHT22;11734;51.046;13.778;2023-02-15T03:03:30;1.40;99.90
23130;DHT22;11734;51.046;13.778;2023-02-15T03:06:06;1.40;99.90
23130;DHT22;11734;51.046;13.778;2023-02-15T03:08:40;1.40;99.90
23130;DHT22;11734;51.046;13.778;2023-02-15T03:11:09;1.30;99.90
23130;DHT22;11734;51.046;13.778;2023-02-15T03:13:37;1.30;99.90
23130;DHT22;11734;51.046;13.778;2023-02-15T03:16:07;1.30;99.90
23130;DHT22;11734;51.046;13.778;2023-02-15T03:19:09;1.30;99.90
23130;DHT22;11734;51.046;13.778;2023-02-15T03:21:49;1.30;99.90
23130;DHT22;11734;51.046;13.778;2023-02-15T03:24:28;1.20;99.90
23130;DHT22;11734;51.046;13.778;2023-02-15T03:26:59;1.30;99.90
23130;DHT22;11734;51.046;13.778;2023-02-15T03:29:30;1.30;99.90
23130;DHT22;11734;51.046;13.778;2023-02-15T03:32:00;1.30;99.90
23130;DHT22;11734;51.046;13.778;2023-02-15T03:34:29;1.30;99.90
23130;DHT22;11734;51.046;13.778;2023-02-15T03:40:02;1.30;99.90
23130;DHT22;11734;51.046;13.778;2023-02-15T03:43:00;1.20;99.90
23130;DHT22;11734;51.046;13.778;2023-02-15T03:45:31;1.20;99.90
23130;DHT22;11734;51.046;13.778;2023-02-15T03:48:00;1.20;99.90
23130;DHT22;11734;51.046;13.778;2023-02-15T03:50:30;1.20;99.90
23130;DHT22;11734;51.046;13.778;2023-02-15T03:53:18;1.30;99.90
23130;DHT22;11734;51.046;13.778;2023-02-15T03:55:54;1.20;99.90
23130;DHT22;11734;51.046;13.778;2023-02-15T03:58:22;1.20;99.90
23130;DHT22;11734;51.046;13.778;2023-02-15T04:04:18;1.20;99.90
23130;DHT22;11734;51.046;13.778;2023-02-15T04:06:45;1.30;99.90
23130;DHT22;11734;51.046;13.778;2023-02-15T04:09:13;1.30;99.90
23130;DHT22;11734;51.046;13.778;2023-02-15T04:11:58;1.30;99.90
23130;DHT22;11734;51.046;13.778;2023-02-15T04:14:25;1.20;99.90
23130;DHT22;11734;51.046;13.778;2023-02-15T04:17:11;1.20;99.90
23130;DHT22;11734;51.046;13.778;2023-02-15T04:19:38;1.20;99.90
23130;DHT22;11734;51.046;13.778;2023-02-15T04:22:25;1.20;99.90
23130;DHT22;11734;51.046;13.778;2023-02-15T04:25:11;1.20;99.90
23130;DHT22;11734;51.046;13.778;2023-02-15T04:27:44;1.10;99.90
23130;DHT22;11734;51.046;13.778;2023-02-15T04:30:12;1.10;99.90
23130;DHT22;11734;51.046;13.778;2023-02-15T04:32:40;1.10;99.90
23130;DHT22;11734;51.046;13.778;2023-02-15T04:35:08;1.10;99.90
23130;DHT22;11734;51.046;13.778;2023-02-15T04:37:35;1.10;99.90
23130;DHT22;11734;51.046;13.778;2023-02-15T04:40:05;1.20;99.90
23130;DHT22;11734;51.046;13.778;2023-02-15T04:42:32;1.30;99.90
23130;DHT22;11734;51.046;13.778;2023-02-15T04:44:59;1.40;99.90
23130;DHT22;11734;51.046;13.778;2023-02-15T04:47:26;1.60;99.90
23130;DHT22;11734;51.046;13.778;2023-02-15T04:49:53;1.50;99.90
23130;DHT22;11734;51.046;13.778;2023-02-15T04:52:23;1.50;99.90
23130;DHT22;11734;51.046;13.778;2023-02-15T04:54:50;1.50;99.90
23130;DHT22;11734;51.046;13.778;2023-02-15T04:57:17;1.50;99.90
23130;DHT22;11734;51.046;13.778;2023-02-15T04:59:44;1.50;99.90
23130;DHT22;11734;51.046;13.778;2023-02-15T05:02:11;1.50;99.90
23130;DHT22;11734;51.046;13.778;2023-02-15T05:04:38;1.40;99.90
23130;DHT22;11734;51.046;13.778;2023-02-15T05:07:05;1.60;99.90
23130;DHT22;11734;51.046;13.778;2023-02-15T05:09:32;1.30;99.90
23130;DHT22;11734;51.046;13.778;2023-02-15T05:12:01;1.30;99.90
23130;DHT22;11734;51.046;13.778;2023-02-15T05:14:29;1.20;99.90
23130;DHT22;11734;51.046;13.778;2023-02-15T05:16:55;1.10;99.90
23130;DHT22;11734;51.046;13.778;2023-02-15T05:19:23;1.10;99.90
23130;DHT22;11734;51.046;13.778;2023-02-15T05:21:51;1.00;99.90
23130;DHT22;11734;51.046;13.778;2023-02-15T05:24:18;1.00;99.90
23130;DHT22;11734;51.046;13.778;2023-02-15T05:27:22;1.00;99.90
23130;DHT22;11734;51.046;13.778;2023-02-15T05:30:08;0.90;99.90
23130;DHT22;11734;51.046;13.778;2023-02-15T05:32:38;0.90;99.90
23130;DHT22;11734;51.046;13.778;2023-02-15T05:35:06;0.90;99.90
23130;DHT22;11734;51.046;13.778;2023-02-15T05:37:34;0.90;99.90
23130;DHT22;11734;51.046;13.778;2023-02-15T05:40:01;0.90;99.90
23130;DHT22;11734;51.046;13.778;2023-02-15T05:42:28;0.90;99.90
23130;DHT22;11734;51.046;13.778;2023-02-15T05:44:55;0.90;99.90
23130;DHT22;11734;51.046;13.778;2023-02-15T05:47:21;0.90;99.90
23130;DHT22;11734;51.046;13.778;2023-02-15T05:49:48;0.90;99.90
23130;DHT22;11734;51.046;13.778;2023-02-15T05:52:15;0.80;99.90
23130;DHT22;11734;51.046;13.778;2023-02-15T05:54:42;0.90;99.90
23130;DHT22;11734;51.046;13.778;2023-02-15T05:57:09;0.90;99.90
23130;DHT22;11734;51.046;13.778;2023-02-15T05:59:36;0.90;99.90
23130;DHT22;11734;51.046;13.778;2023-02-15T06:02:03;1.00;99.90
23130;DHT22;11734;51.046;13.778;2023-02-15T06:04:30;1.00;99.90
23130;DHT22;11734;51.046;13.778;2023-02-15T06:06:57;1.00;99.90
23130;DHT22;11734;51.046;13.778;2023-02-15T06:09:23;1.00;99.90
23130;DHT22;11734;51.046;13.778;2023-02-15T06:11:50;1.00;99.90
23130;DHT22;11734;51.046;13.778;2023-02-15T06:14:17;1.00;99.90
23130;DHT22;11734;51.046;13.778;2023-02-15T06:16:44;1.00;99.90
23130;DHT22;11734;51.046;13.778;2023-02-15T06:19:11;1.20;99.90
23130;DHT22;11734;51.046;13.778;2023-02-15T06:21:38;1.00;99.90
23130;DHT22;11734;51.046;13.778;2023-02-15T06:24:05;1.00;99.90
23130;DHT22;11734;51.046;13.778;2023-02-15T06:26:31;1.00;99.90
23130;DHT22;11734;51.046;13.778;2023-02-15T06:28:59;1.00;99.90
23130;DHT22;11734;51.046;13.778;2023-02-15T06:31:26;1.00;99.90
23130;DHT22;11734;51.046;13.778;2023-02-15T06:33:53;1.00;99.90
23130;DHT22;11734;51.046;13.778;2023-02-15T06:36:28;1.10;99.90
23130;DHT22;11734;51.046;13.778;2023-02-15T06:38:55;1.10;99.90
23130;DHT22;11734;51.046;13.778;2023-02-15T06:41:23;1.10;99.90
23130;DHT22;11734;51.046;13.778;2023-02-15T06:43:50;1.10;99.90
23130;DHT22;11734;51.046;13.778;2023-02-15T06:46:17;1.10;99.90
23130;DHT22;11734;51.046;13.778;2023-02-15T06:48:44;1.10;99.90
23130;DHT22;11734;51.046;13.778;2023-02-15T06:51:11;1.20;99.90
23130;DHT22;11734;51.046;13.778;2023-02-15T06:53:38;1.20;99.90
23130;DHT22;11734;51.046;13.778;2023-02-15T06:56:08;1.20;99.90
23130;DHT22;11734;51.046;13.778;2023-02-15T06:58:37;1.30;99.90
23130;DHT22;11734;51.046;13.778;2023-02-15T07:01:04;1.30;99.90
23130;DHT22;11734;51.046;13.778;2023-02-15T07:03:32;1.30;99.90
23130;DHT22;11734;51.046;13.778;2023-02-15T07:06:00;1.30;99.90
23130;DHT22;11734;51.046;13.778;2023-02-15T07:08:29;1.40;99.90
23130;DHT22;11734;51.046;13.778;2023-02-15T07:10:56;1.50;99.90
23130;DHT22;11734;51.046;13.778;2023-02-15T07:13:43;1.50;99.90
23130;DHT22;11734;51.046;13.778;2023-02-15T07:16:10;1.50;99.90
23130;DHT22;11734;51.046;13.778;2023-02-15T07:18:38;1.50;99.90
23130;DHT22;11734;51.046;13.778;2023-02-15T07:21:06;1.60;99.90
23130;DHT22;11734;51.046;13.778;2023-02-15T07:23:38;1.70;99.90
23130;DHT22;11734;51.046;13.778;2023-02-15T07:26:06;1.70;99.90
23130;DHT22;11734;51.046;13.778;2023-02-15T07:28:34;1.70;99.90
23130;DHT22;11734;51.046;13.778;2023-02-15T07:31:03;1.80;99.90
23130;DHT22;11734;51.046;13.778;2023-02-15T07:33:31;1.90;99.90
23130;DHT22;11734;51.046;13.778;2023-02-15T07:36:00;2.00;99.90
23130;DHT22;11734;51.046;13.778;2023-02-15T07:38:34;1.90;99.90
23130;DHT22;11734;51.046;13.778;2023-02-15T07:41:07;2.00;99.90
23130;DHT22;11734;51.046;13.778;2023-02-15T07:43:36;2.10;99.90
23130;DHT22;11734;51.046;13.778;2023-02-15T07:46:05;2.20;99.90
23130;DHT22;11734;51.046;13.778;2023-02-15T07:48:35;2.20;99.90
23130;DHT22;11734;51.046;13.778;2023-02-15T07:51:03;2.20;99.90
23130;DHT22;11734;51.046;13.778;2023-02-15T07:53:30;2.30;99.90
23130;DHT22;11734;51.046;13.778;2023-02-15T07:56:02;2.40;99.90
23130;DHT22;11734;51.046;13.778;2023-02-15T07:58:30;2.50;99.90
23130;DHT22;11734;51.046;13.778;2023-02-15T08:01:16;2.50;99.90
23130;DHT22;11734;51.046;13.778;2023-02-15T08:03:43;2.50;99.90
23130;DHT22;11734;51.046;13.778;2023-02-15T08:06:10;2.60;99.90
23130;DHT22;11734;51.046;13.778;2023-02-15T08:08:40;2.70;99.90
23130;DHT22;11734;51.046;13.778;2023-02-15T08:11:25;2.80;99.90
23130;DHT22;11734;51.046;13.778;2023-02-15T08:13:54;2.90;99.90
23130;DHT22;11734;51.046;13.778;2023-02-15T08:16:37;2.90;99.90
23130;DHT22;11734;51.046;13.778;2023-02-15T08:19:10;3.00;99.90
23130;DHT22;11734;51.046;13.778;2023-02-15T08:21:40;3.10;99.90
23130;DHT22;11734;51.046;13.778;2023-02-15T08:24:08;3.00;99.90
23130;DHT22;11734;51.046;13.778;2023-02-15T08:26:36;3.20;99.90
23130;DHT22;11734;51.046;13.778;2023-02-15T08:29:08;3.20;99.90
23130;DHT22;11734;51.046;13.778;2023-02-15T08:31:35;3.20;99.90
23130;DHT22;11734;51.046;13.778;2023-02-15T08:34:04;3.30;99.90
23130;DHT22;11734;51.046;13.778;2023-02-15T08:36:32;3.40;99.90
23130;DHT22;11734;51.046;13.778;2023-02-15T08:39:01;3.40;99.90
23130;DHT22;11734;51.046;13.778;2023-02-15T08:41:31;3.50;99.90
23130;DHT22;11734;51.046;13.778;2023-02-15T08:44:00;3.50;99.90
23130;DHT22;11734;51.046;13.778;2023-02-15T08:46:29;3.60;99.90
23130;DHT22;11734;51.046;13.778;2023-02-15T08:51:43;3.60;99.90
23130;DHT22;11734;51.046;13.778;2023-02-15T08:54:13;3.60;99.90
23130;DHT22;11734;51.046;13.778;2023-02-15T08:56:41;3.60;99.90
23130;DHT22;11734;51.046;13.778;2023-02-15T08:59:15;3.70;99.90
23130;DHT22;11734;51.046;13.778;2023-02-15T09:01:43;3.80;99.90
23130;DHT22;11734;51.046;13.778;2023-02-15T09:04:10;3.80;99.90
23130;DHT22;11734;51.046;13.778;2023-02-15T09:06:38;3.90;99.90
23130;DHT22;11734;51.046;13.778;2023-02-15T09:09:24;4.00;99.90
23130;DHT22;11734;51.046;13.778;2023-02-15T09:11:51;4.00;99.90
23130;DHT22;11734;51.046;13.778;2023-02-15T09:14:25;4.10;99.90
23130;DHT22;11734;51.046;13.778;2023-02-15T09:16:53;4.20;99.90
23130;DHT22;11734;51.046;13.778;2023-02-15T09:19:22;4.20;99.90
23130;DHT22;11734;51.046;13.778;2023-02-15T09:21:49;4.30;99.90
23130;DHT22;11734;51.046;13.778;2023-02-15T09:24:17;4.30;99.90
23130;DHT22;11734;51.046;13.778;2023-02-15T09:26:46;4.40;99.90
23130;DHT22;11734;51.046;13.778;2023-02-15T09:29:15;4.40;99.90
